createdAt,value
2023-01-11T00:00:00.911Z,2.60
2023-01-11T00:02:18.073Z,2.80
2023-01-11T00:04:37.650Z,2.58
2023-01-11T00:06:54.789Z,2.78
2023-01-11T00:09:11.803Z,3.00
2023-01-11T00:11:28.795Z,2.83
2023-01-11T00:13:46.905Z,2.60
2023-01-11T00:16:04.207Z,2.58
2023-01-11T00:18:22.271Z,2.63
2023-01-11T00:20:39.271Z,2.80
2023-01-11T00:22:56.759Z,2.47
2023-01-11T00:25:13.736Z,2.80
2023-01-11T00:27:30.933Z,2.72
2023-01-11T00:29:48.173Z,2.72
2023-01-11T00:32:05.584Z,2.58
2023-01-11T00:34:22.627Z,2.47
2023-01-11T00:36:39.928Z,2.40
2023-01-11T00:38:56.967Z,2.60
2023-01-11T00:41:14.254Z,2.10
2023-01-11T00:43:31.569Z,2.30
2023-01-11T00:45:48.781Z,1.80
2023-01-11T00:48:07.164Z,2.25
2023-01-11T00:50:24.201Z,1.88
2023-01-11T00:52:41.617Z,1.98
2023-01-11T00:54:58.676Z,2.00
2023-01-11T00:57:16.061Z,1.95
2023-01-11T00:59:34.465Z,1.70
2023-01-11T01:01:51.846Z,2.10
2023-01-11T01:04:09.805Z,2.10
2023-01-11T01:06:27.262Z,1.98
2023-01-11T01:08:44.585Z,2.05
2023-01-11T01:11:01.521Z,1.80
2023-01-11T01:13:18.501Z,2.00
2023-01-11T01:15:35.558Z,1.85
2023-01-11T01:17:52.646Z,1.90
2023-01-11T01:20:09.742Z,1.98
2023-01-11T01:22:26.853Z,1.88
2023-01-11T01:24:43.823Z,1.95
2023-01-11T01:27:01.847Z,2.03
2023-01-11T01:29:18.986Z,1.90
2023-01-11T01:31:36.062Z,1.70
2023-01-11T01:33:53.145Z,2.00
2023-01-11T01:36:10.207Z,1.92
2023-01-11T01:38:27.218Z,1.60
2023-01-11T01:40:44.216Z,1.58
2023-01-11T01:43:01.497Z,1.98
2023-01-11T01:45:18.842Z,1.85
2023-01-11T01:47:35.948Z,2.00
2023-01-11T01:49:52.924Z,2.05
2023-01-11T01:52:09.975Z,2.03
2023-01-11T01:54:26.861Z,2.47
2023-01-11T01:56:44.210Z,2.13
2023-01-11T01:59:02.428Z,2.25
2023-01-11T02:01:22.097Z,2.33
2023-01-11T02:03:39.165Z,2.20
2023-01-11T02:05:57.358Z,2.42
2023-01-11T02:08:14.273Z,2.50
2023-01-11T02:10:31.264Z,2.30
2023-01-11T02:12:48.331Z,1.90
2023-01-11T02:15:05.659Z,2.15
2023-01-11T02:17:24.330Z,2.10
2023-01-11T02:19:41.420Z,1.85
2023-01-11T02:21:58.871Z,2.05
2023-01-11T02:24:15.965Z,2.00
2023-01-11T02:26:33.311Z,1.73
2023-01-11T02:28:50.698Z,2.00
2023-01-11T02:31:08.187Z,2.00
2023-01-11T02:33:25.839Z,1.75
2023-01-11T02:35:42.812Z,1.98
2023-01-11T02:38:00.090Z,1.67
2023-01-11T02:40:18.642Z,1.90
2023-01-11T02:42:36.545Z,1.90
2023-01-11T02:44:53.681Z,2.17
2023-01-11T02:47:10.989Z,2.22
2023-01-11T02:49:28.381Z,1.92
2023-01-11T02:51:45.342Z,2.00
2023-01-11T02:54:02.657Z,2.00
2023-01-11T02:56:19.550Z,2.00
2023-01-11T02:58:37.444Z,2.42
2023-01-11T03:00:54.375Z,1.80
2023-01-11T03:03:11.392Z,2.10
2023-01-11T03:05:29.256Z,1.85
2023-01-11T03:07:46.262Z,1.90
2023-01-11T03:10:04.550Z,1.70
2023-01-11T03:12:21.507Z,1.80
2023-01-11T03:14:38.585Z,1.70
2023-01-11T03:16:55.660Z,1.88
2023-01-11T03:19:12.710Z,1.45
2023-01-11T03:21:30.053Z,1.33
2023-01-11T03:23:47.097Z,1.48
2023-01-11T03:26:04.999Z,1.45
2023-01-11T03:28:22.097Z,1.08
2023-01-11T03:30:39.058Z,1.20
2023-01-11T03:32:56.108Z,1.00
2023-01-11T03:35:13.354Z,1.20
2023-01-11T03:37:30.699Z,1.35
2023-01-11T03:39:47.790Z,1.08
2023-01-11T03:42:04.850Z,1.20
2023-01-11T03:44:22.801Z,1.05
2023-01-11T03:46:40.139Z,0.90
2023-01-11T03:48:57.615Z,0.85
2023-01-11T03:51:15.485Z,0.90
2023-01-11T03:53:32.822Z,1.00
2023-01-11T03:55:50.889Z,1.00
2023-01-11T03:58:07.829Z,0.95
2023-01-11T04:00:25.122Z,0.90
2023-01-11T04:02:42.175Z,0.95
2023-01-11T04:05:00.177Z,0.77
2023-01-11T04:07:17.216Z,0.88
2023-01-11T04:09:35.513Z,0.70
2023-01-11T04:11:54.095Z,0.93
2023-01-11T04:14:12.866Z,0.80
2023-01-11T04:16:30.921Z,1.08
2023-01-11T04:18:48.324Z,0.80
2023-01-11T04:21:05.369Z,0.75
2023-01-11T04:23:22.671Z,0.70
2023-01-11T04:25:39.706Z,0.70
2023-01-11T04:27:56.725Z,0.90
2023-01-11T04:30:13.808Z,0.90
2023-01-11T04:32:30.798Z,0.82
2023-01-11T04:34:47.880Z,0.90
2023-01-11T04:37:06.124Z,1.10
2023-01-11T04:39:23.348Z,0.90
2023-01-11T04:41:40.668Z,0.80
2023-01-11T04:43:57.746Z,0.90
2023-01-11T04:46:15.200Z,0.93
2023-01-11T04:48:32.450Z,0.80
2023-01-11T04:50:50.760Z,0.90
2023-01-11T04:53:07.688Z,1.10
2023-01-11T04:55:24.664Z,1.08
2023-01-11T04:57:42.607Z,1.02
2023-01-11T04:59:59.771Z,0.93
2023-01-11T05:02:16.771Z,1.10
2023-01-11T05:04:33.815Z,1.20
2023-01-11T05:06:51.168Z,1.20
2023-01-11T05:09:09.472Z,1.20
2023-01-11T05:11:26.350Z,1.45
2023-01-11T05:13:43.730Z,1.20
2023-01-11T05:16:01.789Z,1.55
2023-01-11T05:18:18.707Z,1.20
2023-01-11T05:20:36.775Z,1.20
2023-01-11T05:22:53.794Z,1.23
2023-01-11T05:25:11.874Z,1.17
2023-01-11T05:27:29.898Z,1.20
2023-01-11T05:29:47.126Z,1.10
2023-01-11T05:32:04.173Z,1.33
2023-01-11T05:34:22.259Z,1.23
2023-01-11T05:36:39.551Z,1.40
2023-01-11T05:38:57.473Z,1.30
2023-01-11T05:41:14.472Z,1.10
2023-01-11T05:43:33.064Z,1.30
2023-01-11T05:45:50.426Z,1.30
2023-01-11T05:48:07.645Z,4.05
2023-01-11T05:50:26.946Z,3.88
2023-01-11T05:52:43.985Z,2.95
2023-01-11T05:55:01.014Z,3.30
2023-01-11T05:57:18.051Z,3.40
2023-01-11T05:59:35.097Z,3.92
2023-01-11T06:01:52.450Z,2.53
2023-01-11T06:04:09.384Z,1.90
2023-01-11T06:06:26.689Z,1.25
2023-01-11T06:08:44.959Z,1.60
2023-01-11T06:11:01.970Z,1.20
2023-01-11T06:13:18.966Z,1.30
2023-01-11T06:15:35.842Z,1.30
2023-01-11T06:17:52.885Z,1.70
2023-01-11T06:20:10.207Z,1.83
2023-01-11T06:22:27.250Z,1.90
2023-01-11T06:24:45.299Z,2.15
2023-01-11T06:27:03.283Z,2.72
2023-01-11T06:29:21.628Z,2.92
2023-01-11T06:31:38.877Z,1.73
2023-01-11T06:33:56.269Z,1.80
2023-01-11T06:36:14.234Z,3.70
2023-01-11T06:38:31.140Z,3.17
2023-01-11T06:40:48.407Z,3.72
2023-01-11T06:43:05.383Z,3.67
2023-01-11T06:45:23.638Z,1.83
2023-01-11T06:47:40.551Z,3.63
2023-01-11T06:49:58.493Z,4.30
2023-01-11T06:52:15.443Z,3.30
2023-01-11T06:54:32.686Z,2.70
2023-01-11T06:56:49.672Z,4.45
2023-01-11T06:59:07.208Z,2.17
2023-01-11T07:01:24.319Z,1.98
2023-01-11T07:03:41.301Z,1.50
2023-01-11T07:05:58.340Z,5.88
2023-01-11T07:08:15.656Z,5.75
2023-01-11T07:10:32.947Z,5.32
2023-01-11T07:12:49.820Z,3.60
2023-01-11T07:15:07.157Z,10.50
2023-01-11T07:17:24.203Z,9.77
2023-01-11T07:19:42.523Z,4.10
2023-01-11T07:21:59.811Z,3.00
2023-01-11T07:24:17.103Z,2.97
2023-01-11T07:26:34.128Z,2.53
2023-01-11T07:28:51.455Z,2.03
2023-01-11T07:31:08.586Z,1.75
2023-01-11T07:33:26.975Z,1.60
2023-01-11T07:35:44.241Z,1.50
2023-01-11T07:38:02.509Z,1.30
2023-01-11T07:40:19.789Z,1.40
2023-01-11T07:42:37.072Z,4.68
2023-01-11T07:44:55.322Z,3.53
2023-01-11T07:47:12.373Z,2.10
2023-01-11T07:49:29.736Z,1.60
2023-01-11T07:51:47.033Z,1.50
2023-01-11T07:54:04.082Z,1.50
2023-01-11T07:56:23.458Z,1.30
2023-01-11T07:58:40.530Z,1.20
2023-01-11T08:00:57.626Z,1.60
2023-01-11T08:03:14.625Z,1.10
2023-01-11T08:05:32.981Z,1.35
2023-01-11T08:07:49.984Z,1.30
2023-01-11T08:10:06.945Z,1.13
2023-01-11T08:12:23.859Z,1.23
2023-01-11T08:14:41.869Z,1.27
2023-01-11T08:16:59.190Z,1.38
2023-01-11T08:19:16.147Z,1.27
2023-01-11T08:21:33.399Z,1.10
2023-01-11T08:23:51.733Z,1.35
2023-01-11T08:26:08.698Z,1.95
2023-01-11T08:28:25.996Z,1.40
2023-01-11T08:30:43.007Z,1.30
2023-01-11T08:33:01.212Z,2.63
2023-01-11T08:35:18.347Z,1.20
2023-01-11T08:37:36.382Z,1.00
2023-01-11T08:39:53.673Z,0.90
2023-01-11T08:42:10.718Z,1.30
2023-01-11T08:44:35.370Z,1.15
2023-01-11T08:46:52.642Z,1.00
2023-01-11T08:49:09.985Z,0.93
2023-01-11T08:51:27.360Z,0.90
2023-01-11T08:53:44.603Z,2.17
2023-01-11T08:56:01.881Z,1.60
2023-01-11T08:58:20.689Z,3.20
2023-01-11T09:00:38.522Z,2.10
2023-01-11T09:02:55.831Z,4.68
2023-01-11T09:05:13.139Z,1.73
2023-01-11T09:07:30.270Z,1.67
2023-01-11T09:09:47.406Z,2.40
2023-01-11T09:12:05.836Z,2.80
2023-01-11T09:14:23.327Z,2.05
2023-01-11T09:16:40.390Z,1.80
2023-01-11T09:18:57.429Z,1.77
2023-01-11T09:21:15.521Z,1.92
2023-01-11T09:23:32.599Z,1.50
2023-01-11T09:25:49.688Z,10.73
2023-01-11T09:28:06.793Z,3.85
2023-01-11T09:30:23.803Z,2.30
2023-01-11T09:32:41.092Z,1.50
2023-01-11T09:34:58.421Z,1.42
2023-01-11T09:37:15.507Z,1.55
2023-01-11T09:39:32.405Z,1.20
2023-01-11T09:41:50.762Z,1.20
2023-01-11T09:44:08.073Z,1.20
2023-01-11T09:46:25.099Z,2.10
2023-01-11T09:48:42.464Z,2.70
2023-01-11T09:50:59.895Z,1.80
2023-01-11T09:53:16.960Z,1.00
2023-01-11T09:55:34.247Z,1.40
2023-01-11T09:57:51.221Z,1.30
2023-01-11T10:00:08.522Z,1.30
2023-01-11T10:02:25.490Z,1.20
2023-01-11T10:04:42.833Z,1.25
2023-01-11T10:06:59.816Z,1.17
2023-01-11T10:18:22.775Z,1.13
2023-01-11T10:18:39.797Z,0.80
2023-01-11T10:19:45.748Z,0.90
2023-01-11T10:22:03.117Z,0.60
2023-01-11T10:24:20.223Z,0.60
2023-01-11T10:26:37.514Z,0.50
2023-01-11T10:28:54.805Z,0.52
2023-01-11T10:31:11.811Z,0.80
2023-01-11T10:33:28.894Z,0.60
2023-01-11T10:35:48.181Z,0.70
2023-01-11T10:38:05.317Z,0.50
2023-01-11T10:40:22.405Z,0.70
2023-01-11T10:42:39.531Z,0.60
2023-01-11T10:44:56.835Z,0.50
2023-01-11T10:47:15.998Z,0.60
2023-01-11T10:49:35.547Z,0.60
2023-01-11T10:51:53.213Z,0.40
2023-01-11T10:54:10.592Z,0.50
2023-01-11T10:56:27.961Z,0.40
2023-01-11T10:58:44.957Z,0.30
2023-01-11T11:01:02.268Z,0.30
2023-01-11T11:03:20.149Z,0.30
2023-01-11T11:05:37.321Z,0.30
2023-01-11T11:07:55.020Z,0.30
2023-01-11T11:10:12.127Z,3.67
2023-01-11T11:12:29.569Z,2.60
2023-01-11T11:14:47.745Z,4.63
2023-01-11T11:17:04.717Z,4.50
2023-01-11T11:19:21.911Z,13.85
2023-01-11T11:21:39.165Z,5.75
2023-01-11T11:23:56.243Z,1.75
2023-01-11T11:26:13.162Z,1.58
2023-01-11T11:28:30.541Z,1.25
2023-01-11T11:30:47.579Z,0.90
2023-01-11T11:33:05.007Z,1.00
2023-01-11T11:35:24.995Z,0.98
2023-01-11T11:37:42.290Z,2.42
2023-01-11T11:39:59.632Z,1.20
2023-01-11T11:42:17.023Z,0.95
2023-01-11T11:44:34.138Z,0.50
2023-01-11T11:46:51.457Z,1.05
2023-01-11T11:49:08.671Z,1.70
2023-01-11T11:51:27.064Z,2.20
2023-01-11T11:53:44.495Z,0.85
2023-01-11T11:56:03.803Z,1.40
2023-01-11T11:58:21.849Z,1.30
2023-01-11T12:00:38.811Z,1.30
2023-01-11T12:02:55.820Z,0.88
2023-01-11T12:05:13.218Z,1.60
2023-01-11T12:07:30.273Z,7.03
2023-01-11T12:09:47.603Z,9.30
2023-01-11T12:12:04.744Z,11.32
2023-01-11T12:14:22.956Z,10.80
2023-01-11T12:16:40.019Z,5.63
2023-01-11T12:19:00.128Z,7.63
2023-01-11T12:21:18.538Z,5.32
2023-01-11T12:23:36.550Z,6.95
2023-01-11T12:25:54.411Z,6.05
2023-01-11T12:28:11.554Z,4.95
2023-01-11T12:30:29.789Z,5.18
2023-01-11T12:32:47.077Z,5.10
2023-01-11T12:35:04.329Z,4.65
2023-01-11T12:37:22.697Z,4.47
2023-01-11T12:39:40.046Z,3.25
2023-01-11T12:41:57.375Z,6.63
2023-01-11T12:44:14.721Z,4.05
2023-01-11T12:46:34.144Z,10.88
2023-01-11T12:48:53.388Z,2.78
2023-01-11T12:51:10.316Z,5.13
2023-01-11T12:53:27.334Z,4.43
2023-01-11T12:55:44.497Z,2.47
2023-01-11T12:58:02.979Z,2.67
2023-01-11T13:00:20.241Z,2.60
2023-01-11T13:02:37.308Z,2.08
2023-01-11T13:04:54.309Z,1.92
2023-01-11T13:07:11.299Z,3.42
2023-01-11T13:09:29.547Z,3.80
2023-01-11T13:11:46.571Z,1.90
2023-01-11T13:14:03.726Z,4.00
2023-01-11T13:16:20.693Z,2.83
2023-01-11T13:18:38.002Z,1.95
2023-01-11T13:21:03.915Z,1.80
2023-01-11T13:23:21.503Z,3.33
2023-01-11T13:25:38.825Z,2.10
2023-01-11T13:27:55.826Z,2.05
2023-01-11T13:30:13.931Z,2.35
2023-01-11T13:32:31.345Z,2.38
2023-01-11T13:34:48.452Z,1.65
2023-01-11T13:37:05.605Z,2.25
2023-01-11T13:39:22.677Z,2.00
2023-01-11T13:41:39.821Z,1.40
2023-01-11T13:43:56.972Z,1.80
2023-01-11T13:46:14.010Z,1.60
2023-01-11T13:48:31.469Z,1.63
2023-01-11T13:50:48.906Z,1.52
2023-01-11T13:53:06.843Z,1.65
2023-01-11T13:55:26.505Z,1.30
2023-01-11T13:57:43.852Z,2.42
2023-01-11T14:00:01.083Z,2.30
2023-01-11T14:02:18.045Z,2.08
2023-01-11T14:04:35.066Z,1.77
2023-01-11T14:06:52.034Z,1.35
2023-01-11T14:09:10.078Z,2.15
2023-01-11T14:11:27.603Z,1.85
2023-01-11T14:13:44.561Z,2.67
2023-01-11T14:16:01.991Z,2.05
2023-01-11T14:18:19.453Z,1.77
2023-01-11T14:20:36.794Z,1.70
2023-01-11T14:22:53.916Z,2.13
2023-01-11T14:25:11.045Z,1.88
2023-01-11T14:27:28.104Z,2.17
2023-01-11T14:29:45.494Z,2.25
2023-01-11T14:32:02.886Z,2.13
2023-01-11T14:34:20.551Z,2.35
2023-01-11T14:36:38.876Z,2.03
2023-01-11T14:38:55.932Z,1.90
2023-01-11T14:41:13.877Z,2.20
2023-01-11T14:43:30.955Z,2.40
2023-01-11T14:45:48.422Z,2.58
2023-01-11T14:48:05.347Z,2.67
2023-01-11T14:50:23.748Z,6.45
2023-01-11T14:52:40.972Z,4.38
2023-01-11T14:54:58.120Z,7.72
2023-01-11T14:57:15.411Z,5.10
2023-01-11T14:59:33.336Z,5.25
2023-01-11T15:01:50.494Z,5.13
2023-01-11T15:04:07.719Z,2.92
2023-01-11T15:06:24.805Z,4.13
2023-01-11T15:08:41.836Z,2.80
2023-01-11T15:10:59.151Z,2.40
2023-01-11T15:13:16.534Z,2.20
2023-01-11T15:15:33.775Z,2.42
2023-01-11T15:17:50.736Z,2.25
2023-01-11T15:20:08.025Z,2.42
2023-01-11T15:22:26.312Z,2.75
2023-01-11T15:24:43.340Z,2.40
2023-01-11T15:27:00.330Z,2.70
2023-01-11T15:29:17.424Z,2.75
2023-01-11T15:31:34.762Z,2.75
2023-01-11T15:33:51.903Z,2.63
2023-01-11T15:36:09.228Z,2.50
2023-01-11T15:38:26.480Z,2.38
2023-01-11T15:40:43.809Z,2.15
2023-01-11T15:43:01.041Z,2.35
2023-01-11T15:45:18.063Z,2.13
2023-01-11T15:47:35.071Z,2.08
2023-01-11T15:49:52.098Z,2.60
2023-01-11T15:52:09.334Z,2.10
2023-01-11T15:54:26.307Z,2.30
2023-01-11T15:56:43.381Z,3.67
2023-01-11T15:59:01.924Z,3.33
2023-01-11T16:01:19.001Z,4.28
2023-01-11T16:03:36.464Z,4.22
2023-01-11T16:05:53.394Z,4.22
2023-01-11T16:08:10.476Z,5.63
2023-01-11T16:10:27.808Z,5.32
2023-01-11T16:12:45.054Z,5.43
2023-01-11T16:15:05.968Z,4.30
2023-01-11T16:17:26.604Z,4.78
2023-01-11T16:19:43.669Z,4.88
2023-01-11T16:22:01.082Z,4.00
2023-01-11T16:24:18.404Z,4.15
2023-01-11T16:26:35.549Z,2.53
2023-01-11T16:28:52.619Z,1.77
2023-01-11T16:31:09.954Z,2.25
2023-01-11T16:33:27.309Z,1.50
2023-01-11T16:35:45.658Z,1.85
2023-01-11T16:38:02.895Z,1.30
2023-01-11T16:40:19.971Z,1.73
2023-01-11T16:42:37.272Z,1.27
2023-01-11T16:44:54.703Z,1.20
2023-01-11T16:47:12.415Z,1.00
2023-01-11T16:49:29.537Z,1.05
2023-01-11T16:51:48.055Z,1.20
2023-01-11T16:54:06.333Z,1.80
2023-01-11T16:56:23.547Z,1.35
2023-01-11T16:58:41.629Z,1.58
2023-01-11T17:00:59.112Z,1.95
2023-01-11T17:03:16.625Z,1.98
2023-01-11T17:05:34.742Z,1.60
2023-01-11T17:07:51.827Z,1.70
2023-01-11T17:10:09.768Z,1.48
2023-01-11T17:12:26.973Z,1.77
2023-01-11T17:14:43.933Z,1.30
2023-01-11T17:17:01.189Z,1.70
2023-01-11T17:19:18.617Z,1.85
2023-01-11T17:21:35.781Z,1.98
2023-01-11T17:23:54.148Z,1.80
2023-01-11T17:26:14.691Z,1.80
2023-01-11T17:28:32.050Z,2.55
2023-01-11T17:30:49.205Z,1.92
2023-01-11T17:33:06.159Z,1.80
2023-01-11T17:35:23.460Z,4.00
2023-01-11T17:37:40.564Z,3.70
2023-01-11T17:39:57.612Z,4.00
2023-01-11T17:42:15.728Z,3.63
2023-01-11T17:44:34.799Z,3.10
2023-01-11T17:46:51.876Z,2.85
2023-01-11T17:51:43.276Z,1.77
2023-01-11T17:54:00.219Z,2.00
2023-01-11T17:56:18.499Z,1.70
2023-01-11T17:58:36.552Z,1.80
2023-01-11T18:00:53.633Z,1.80
2023-01-11T18:03:11.021Z,1.65
2023-01-11T18:05:28.639Z,2.00
2023-01-11T18:07:45.795Z,1.48
2023-01-11T18:10:03.852Z,2.30
2023-01-11T18:12:24.143Z,3.38
2023-01-11T18:14:41.200Z,3.95
2023-01-11T18:16:59.563Z,3.72
2023-01-11T18:19:16.637Z,4.15
2023-01-11T18:21:34.243Z,3.30
2023-01-11T18:23:51.430Z,2.90
2023-01-11T18:26:09.525Z,2.58
2023-01-11T18:28:27.804Z,2.60
2023-01-11T18:30:44.765Z,2.78
2023-01-11T18:33:02.116Z,2.45
2023-01-11T18:35:19.493Z,2.35
2023-01-11T18:37:37.643Z,2.50
2023-01-11T18:39:54.816Z,2.42
2023-01-11T18:42:11.932Z,2.40
2023-01-11T18:44:29.205Z,2.40
2023-01-11T18:46:47.305Z,2.25
2023-01-11T18:49:04.408Z,2.80
2023-01-11T18:51:22.666Z,3.20
2023-01-11T18:53:39.682Z,3.38
2023-01-11T18:55:57.081Z,3.38
2023-01-11T18:58:14.120Z,3.20
2023-01-11T19:00:33.142Z,3.28
2023-01-11T19:05:07.483Z,4.28
2023-01-11T19:07:24.549Z,4.30
2023-01-11T19:09:41.677Z,4.93
2023-01-11T19:11:58.685Z,5.80
2023-01-11T19:14:15.814Z,4.88
2023-01-11T19:16:32.872Z,6.15
2023-01-11T19:18:50.149Z,6.63
2023-01-11T19:21:07.487Z,5.63
2023-01-11T19:25:46.559Z,5.68
2023-01-11T19:28:03.637Z,5.55
2023-01-11T19:30:21.084Z,5.82
2023-01-11T19:32:38.177Z,6.32
2023-01-11T19:34:56.448Z,6.18
2023-01-11T19:37:13.423Z,5.50
2023-01-11T19:39:30.690Z,4.93
2023-01-11T19:41:48.772Z,4.65
2023-01-11T19:44:05.718Z,5.18
2023-01-11T19:46:31.656Z,4.97
2023-01-11T19:48:49.150Z,4.50
2023-01-11T19:51:06.494Z,4.38
2023-01-11T19:53:23.642Z,4.78
2023-01-11T19:55:40.718Z,4.90
2023-01-11T19:57:57.619Z,3.75
2023-01-11T20:00:17.691Z,4.43
2023-01-11T20:02:34.818Z,4.13
2023-01-11T20:04:54.585Z,4.10
2023-01-11T20:07:11.529Z,3.78
2023-01-11T20:09:29.758Z,4.22
2023-01-11T20:11:46.823Z,4.13
2023-01-11T20:14:03.857Z,3.75
2023-01-11T20:16:21.856Z,3.72
2023-01-11T20:18:38.888Z,3.20
2023-01-11T20:20:55.943Z,3.35
2023-01-11T20:23:13.190Z,3.03
2023-01-11T20:25:30.251Z,3.08
2023-01-11T20:27:47.647Z,2.65
2023-01-11T20:30:04.688Z,2.85
2023-01-11T20:32:42.223Z,2.90
2023-01-11T20:34:59.808Z,3.22
2023-01-11T20:37:18.005Z,2.92
2023-01-11T20:39:35.084Z,3.25
2023-01-11T20:41:52.044Z,3.35
2023-01-11T20:44:09.084Z,3.30
2023-01-11T20:46:26.533Z,3.45
2023-01-11T20:48:43.598Z,3.20
2023-01-11T20:51:00.604Z,4.00
2023-01-11T20:53:18.459Z,3.60
2023-01-11T20:55:35.507Z,3.88
2023-01-11T20:57:54.033Z,3.47
2023-01-11T21:02:26.759Z,4.07
2023-01-11T21:04:43.776Z,4.47
2023-01-11T21:07:00.705Z,5.13
2023-01-11T21:09:18.784Z,6.82
2023-01-11T21:11:35.776Z,6.18
2023-01-11T21:13:52.856Z,4.70
2023-01-11T21:16:09.912Z,4.70
2023-01-11T21:18:27.933Z,3.90
2023-01-11T21:20:45.041Z,3.72
2023-01-11T21:23:01.919Z,3.50
2023-01-11T21:25:20.187Z,3.28
2023-01-11T21:27:37.197Z,2.88
2023-01-11T21:29:54.263Z,3.10
2023-01-11T21:32:11.384Z,3.13
2023-01-11T21:34:29.486Z,2.53
2023-01-11T21:36:46.787Z,2.58
2023-01-11T21:39:04.138Z,2.42
2023-01-11T21:41:21.082Z,2.90
2023-01-11T21:43:38.589Z,2.67
2023-01-11T21:45:55.957Z,3.33
2023-01-11T21:48:14.281Z,2.83
2023-01-11T21:50:40.204Z,2.83
2023-01-11T21:52:57.293Z,2.73
2023-01-11T21:55:14.833Z,2.95
2023-01-11T21:57:34.976Z,2.90
2023-01-11T21:59:52.068Z,2.67
2023-01-11T22:02:10.507Z,2.28
2023-01-11T22:04:27.485Z,2.78
2023-01-11T22:06:45.475Z,2.80
2023-01-11T22:09:04.199Z,2.97
2023-01-11T22:11:22.054Z,2.58
2023-01-11T22:13:39.115Z,2.42
2023-01-11T22:15:57.555Z,2.97
2023-01-11T22:18:14.851Z,2.45
2023-01-11T22:20:31.954Z,2.55
2023-01-11T22:22:49.307Z,2.78
2023-01-11T22:25:06.314Z,2.70
2023-01-11T22:27:23.411Z,2.53
2023-01-11T22:29:40.437Z,2.60
2023-01-11T22:31:59.801Z,2.78
2023-01-11T22:34:16.922Z,3.15
2023-01-11T22:36:33.903Z,2.55
2023-01-11T22:38:50.868Z,2.70
2023-01-11T22:41:07.833Z,2.47
2023-01-11T22:43:25.124Z,2.40
2023-01-11T22:45:42.229Z,2.83
2023-01-11T22:47:59.538Z,2.67
2023-01-11T22:50:16.506Z,2.70
2023-01-11T22:52:33.522Z,2.47
2023-01-11T22:54:50.755Z,2.92
2023-01-11T22:57:07.788Z,2.53
2023-01-11T22:59:24.773Z,2.70
2023-01-11T23:01:42.055Z,2.85
2023-01-11T23:03:59.300Z,2.55
2023-01-11T23:06:16.289Z,2.95
2023-01-11T23:08:33.247Z,2.97
2023-01-11T23:10:50.472Z,2.83
2023-01-11T23:13:07.855Z,2.60
2023-01-11T23:15:25.193Z,2.30
2023-01-11T23:17:42.437Z,2.60
2023-01-11T23:19:59.829Z,2.85
2023-01-11T23:22:17.365Z,2.80
2023-01-11T23:24:34.408Z,3.22
2023-01-11T23:26:51.336Z,2.92
2023-01-11T23:29:08.726Z,2.58
2023-01-11T23:31:25.932Z,2.97
2023-01-11T23:33:42.933Z,2.70
2023-01-11T23:36:00.057Z,2.80
2023-01-11T23:38:17.416Z,2.38
2023-01-11T23:40:34.518Z,3.30
2023-01-11T23:42:51.841Z,2.67
2023-01-11T23:45:09.201Z,3.63
2023-01-11T23:47:26.396Z,2.60
2023-01-11T23:49:43.497Z,2.78
2023-01-11T23:52:01.563Z,2.30
2023-01-11T23:54:20.471Z,3.10
2023-01-11T23:56:37.545Z,2.83
2023-01-11T23:58:54.542Z,2.83
